Rollet, Canada
Current Conditions -  °F | °C
As of 8:49 AM on Wednesday 26 Nov 2014 (Local Time) from CYUY Reporting Station
Few Clouds Few Clouds  
Wind Chill: 14°   Ceiling: Unl
Heat Index: 14°   Visibility: 15mi
Dew Point: 12°   Wind: 3mph
Humidity: 93%   Direction: 190°S
Pressure: 30.21"   Gusts: NA
Location:  47.93°N, 79.25°W
Report Text: CYUY 261349Z 19003KT 15SM FEW025 FEW060 M10/M11 A3021 RMK SC1SC1 SC TR SC TR SLP255
Loading
Personal Weather Stations






























Interactive Weather Map New forecast layout! Learn more

10-Day Weather Forecast

Advertisements
Track Severe Weather on mobile